Time,TemperatureF,DewpointF,PressureIn,WindDirection,WindDirectionDegrees,WindSpeedMPH,WindSpeedGustMPH,Humidity,HourlyPrecipIn,Conditions,Clouds,dailyrainin,SolarRadiationWatts/m^2,SoftwareType,DateUTC
2014-11-21 00:02:00,24.0,13.0,-100.00,NNW,337,2.0,5.0,63,0.00,,,0.00,0.000000,,2014-11-21 07:02:00,
2014-11-21 00:12:00,24.0,13.0,-100.00,NNW,337,2.0,5.0,63,0.00,,,0.00,0.000000,,2014-11-21 07:12:00,
2014-11-21 00:22:00,24.0,13.0,-100.00,NNW,337,2.0,5.0,63,0.00,,,0.00,0.000000,,2014-11-21 07:22:00,
2014-11-21 00:31:00,23.0,13.0,-100.00,NNE,32,1.0,4.0,65,0.00,,,0.00,0.000000,,2014-11-21 07:31:00,
2014-11-21 00:52:00,23.0,13.0,-100.00,NNE,32,1.0,4.0,65,0.00,,,0.00,0.000000,,2014-11-21 07:52:00,
2014-11-21 01:02:00,23.0,13.0,-100.00,NNE,32,1.0,4.0,65,0.00,,,0.00,0.000000,,2014-11-21 08:02:00,
2014-11-21 01:11:00,23.0,13.0,-100.00,NNE,32,1.0,4.0,65,0.00,,,0.00,0.000000,,2014-11-21 08:11:00,
2014-11-21 01:22:00,23.0,13.0,-100.00,NNE,32,1.0,4.0,65,0.00,,,0.00,0.000000,,2014-11-21 08:22:00,
2014-11-21 01:31:00,19.0,11.0,-100.00,North,357,2.0,3.0,71,0.00,,,0.00,0.000000,,2014-11-21 08:31:00,
2014-11-21 01:52:00,19.0,11.0,-100.00,North,357,2.0,3.0,71,0.00,,,0.00,0.000000,,2014-11-21 08:52:00,
2014-11-21 02:02:00,19.0,11.0,-100.00,North,357,2.0,3.0,71,0.00,,,0.00,0.000000,,2014-11-21 09:02:00,
2014-11-21 02:12:00,19.0,11.0,-100.00,North,357,2.0,3.0,71,0.00,,,0.00,0.000000,,2014-11-21 09:12:00,
2014-11-21 02:22:00,19.0,11.0,-100.00,North,357,2.0,3.0,71,0.00,,,0.00,0.000000,,2014-11-21 09:22:00,
2014-11-21 02:31:00,20.0,11.0,-100.00,North,350,2.0,4.0,69,0.00,,,0.00,0.000000,,2014-11-21 09:31:00,
2014-11-21 02:53:00,20.0,11.0,-100.00,North,350,2.0,4.0,69,0.00,,,0.00,0.000000,,2014-11-21 09:53:00,
2014-11-21 03:03:00,20.0,11.0,-100.00,North,350,2.0,4.0,69,0.00,,,0.00,0.000000,,2014-11-21 10:03:00,
2014-11-21 03:12:00,20.0,11.0,-100.00,North,350,2.0,4.0,69,0.00,,,0.00,0.000000,,2014-11-21 10:12:00,
2014-11-21 03:22:00,20.0,11.0,-100.00,North,350,2.0,4.0,69,0.00,,,0.00,0.000000,,2014-11-21 10:22:00,
2014-11-21 08:31:00,23.0,14.0,-100.00,NNE,17,2.0,3.0,68,-99.99,,,0.00,80.000000,,2014-11-21 15:31:00,
2014-11-21 08:53:00,23.0,14.0,-100.00,NNE,17,2.0,3.0,68,-99.99,,,0.00,80.000000,,2014-11-21 15:53:00,
2014-11-21 09:03:00,23.0,14.0,-100.00,NNE,17,2.0,3.0,68,-99.99,,,0.00,80.000000,,2014-11-21 16:03:00,
2014-11-21 09:13:00,23.0,14.0,-100.00,NNE,17,2.0,3.0,68,-99.99,,,0.00,80.000000,,2014-11-21 16:13:00,
2014-11-21 09:24:00,23.0,14.0,-100.00,NNE,17,2.0,3.0,68,-99.99,,,0.00,80.000000,,2014-11-21 16:24:00,
2014-11-21 09:31:00,30.0,17.0,-100.00,NE,42,2.0,4.0,58,0.00,,,0.00,185.000000,,2014-11-21 16:31:00,
2014-11-21 09:53:00,30.0,17.0,-100.00,NE,42,2.0,4.0,58,0.00,,,0.00,185.000000,,2014-11-21 16:53:00,
2014-11-21 10:03:00,30.0,17.0,-100.00,NE,42,2.0,4.0,58,0.00,,,0.00,185.000000,,2014-11-21 17:03:00,
2014-11-21 10:12:00,30.0,17.0,-100.00,NE,42,2.0,4.0,58,0.00,,,0.00,185.000000,,2014-11-21 17:12:00,
2014-11-21 10:22:00,30.0,17.0,-100.00,NE,42,2.0,4.0,58,0.00,,,0.00,185.000000,,2014-11-21 17:22:00,
2014-11-21 10:31:00,36.0,19.0,-100.00,NNE,26,2.0,5.0,50,0.00,,,0.00,331.000000,,2014-11-21 17:31:00,
2014-11-21 10:53:00,36.0,19.0,-100.00,NNE,26,2.0,5.0,50,0.00,,,0.00,331.000000,,2014-11-21 17:53:00,
2014-11-21 11:03:00,36.0,19.0,-100.00,NNE,26,2.0,5.0,50,0.00,,,0.00,331.000000,,2014-11-21 18:03:00,
2014-11-21 11:13:00,36.0,19.0,-100.00,NNE,26,2.0,5.0,50,0.00,,,0.00,331.000000,,2014-11-21 18:13:00,
2014-11-21 11:22:00,36.0,19.0,-100.00,NNE,26,2.0,5.0,50,0.00,,,0.00,331.000000,,2014-11-21 18:22:00,
2014-11-21 11:31:00,40.0,17.0,-100.00,SE,140,4.0,6.0,39,0.00,,,0.00,463.000000,,2014-11-21 18:31:00,
2014-11-21 11:54:00,40.0,17.0,-100.00,SE,140,4.0,6.0,39,0.00,,,0.00,463.000000,,2014-11-21 18:54:00,
2014-11-21 12:02:00,40.0,17.0,-100.00,SE,140,4.0,6.0,39,0.00,,,0.00,463.000000,,2014-11-21 19:02:00,
2014-11-21 12:12:00,40.0,17.0,-100.00,SE,140,4.0,6.0,39,0.00,,,0.00,463.000000,,2014-11-21 19:12:00,
2014-11-21 12:22:00,40.0,17.0,-100.00,SE,140,4.0,6.0,39,0.00,,,0.00,463.000000,,2014-11-21 19:22:00,
2014-11-21 12:31:00,42.0,17.0,-100.00,SE,137,5.0,9.0,36,0.00,,,0.00,519.000000,,2014-11-21 19:31:00,
2014-11-21 12:52:00,42.0,17.0,-100.00,SE,137,5.0,9.0,36,0.00,,,0.00,519.000000,,2014-11-21 19:52:00,
2014-11-21 13:02:00,42.0,17.0,-100.00,SE,137,5.0,9.0,36,0.00,,,0.00,519.000000,,2014-11-21 20:02:00,
2014-11-21 13:12:00,42.0,17.0,-100.00,SE,137,5.0,9.0,36,0.00,,,0.00,519.000000,,2014-11-21 20:12:00,
2014-11-21 13:22:00,42.0,17.0,-100.00,SE,137,5.0,9.0,36,0.00,,,0.00,519.000000,,2014-11-21 20:22:00,
2014-11-21 13:31:00,46.0,17.0,-100.00,SE,146,4.0,9.0,31,0.00,,,0.00,500.000000,,2014-11-21 20:31:00,
2014-11-21 13:52:00,46.0,17.0,-100.00,SE,146,4.0,9.0,31,0.00,,,0.00,500.000000,,2014-11-21 20:52:00,
2014-11-21 14:02:00,46.0,17.0,-100.00,SE,146,4.0,9.0,31,0.00,,,0.00,500.000000,,2014-11-21 21:02:00,
2014-11-21 14:12:00,46.0,17.0,-100.00,SE,146,4.0,9.0,31,0.00,,,0.00,500.000000,,2014-11-21 21:12:00,
2014-11-21 14:22:00,46.0,17.0,-100.00,SE,146,4.0,9.0,31,0.00,,,0.00,500.000000,,2014-11-21 21:22:00,
2014-11-21 14:31:00,48.0,16.0,-100.00,ESE,123,5.0,8.0,28,0.00,,,0.00,431.000000,,2014-11-21 21:31:00,
2014-11-21 14:54:00,48.0,16.0,-100.00,ESE,123,5.0,8.0,28,0.00,,,0.00,431.000000,,2014-11-21 21:54:00,
2014-11-21 15:03:00,48.0,16.0,-100.00,ESE,123,5.0,8.0,28,0.00,,,0.00,431.000000,,2014-11-21 22:03:00,
2014-11-21 15:13:00,48.0,16.0,-100.00,ESE,123,5.0,8.0,28,0.00,,,0.00,431.000000,,2014-11-21 22:13:00,
2014-11-21 15:23:00,48.0,16.0,-100.00,ESE,123,5.0,8.0,28,0.00,,,0.00,431.000000,,2014-11-21 22:23:00,
2014-11-21 15:31:00,49.0,16.0,-100.00,ESE,108,3.0,7.0,26,0.00,,,0.00,311.000000,,2014-11-21 22:31:00,
2014-11-21 15:53:00,49.0,16.0,-100.00,ESE,108,3.0,7.0,26,0.00,,,0.00,311.000000,,2014-11-21 22:53:00,
2014-11-21 16:03:00,49.0,16.0,-100.00,ESE,108,3.0,7.0,26,0.00,,,0.00,311.000000,,2014-11-21 23:03:00,
2014-11-21 16:12:00,49.0,16.0,-100.00,ESE,108,3.0,7.0,26,0.00,,,0.00,311.000000,,2014-11-21 23:12:00,
2014-11-21 16:22:00,49.0,16.0,-100.00,ESE,108,3.0,7.0,26,0.00,,,0.00,311.000000,,2014-11-21 23:22:00,
2014-11-21 16:31:00,46.0,12.0,-100.00,SSE,148,4.0,6.0,25,0.00,,,0.00,165.000000,,2014-11-21 23:31:00,
2014-11-21 16:53:00,46.0,12.0,-100.00,SSE,148,4.0,6.0,25,0.00,,,0.00,165.000000,,2014-11-21 23:53:00,
2014-11-21 17:02:00,46.0,12.0,-100.00,SSE,148,4.0,6.0,25,0.00,,,0.00,165.000000,,2014-11-22 00:02:00,
2014-11-21 17:12:00,46.0,12.0,-100.00,SSE,148,4.0,6.0,25,0.00,,,0.00,165.000000,,2014-11-22 00:12:00,
2014-11-21 17:23:00,46.0,12.0,-100.00,SSE,148,4.0,6.0,25,0.00,,,0.00,165.000000,,2014-11-22 00:23:00,
2014-11-21 17:31:00,39.0,12.0,-100.00,SSW,199,4.0,6.0,32,0.00,,,0.00,16.000000,,2014-11-22 00:31:00,
2014-11-21 17:52:00,39.0,12.0,-100.00,SSW,199,4.0,6.0,32,0.00,,,0.00,16.000000,,2014-11-22 00:52:00,
2014-11-21 18:02:00,39.0,12.0,-100.00,SSW,199,4.0,6.0,32,0.00,,,0.00,16.000000,,2014-11-22 01:02:00,
2014-11-21 18:12:00,39.0,12.0,-100.00,SSW,199,4.0,6.0,32,0.00,,,0.00,16.000000,,2014-11-22 01:12:00,
2014-11-21 18:22:00,39.0,12.0,-100.00,SSW,199,4.0,6.0,32,0.00,,,0.00,16.000000,,2014-11-22 01:22:00,
2014-11-21 18:31:00,35.0,12.0,-100.00,NNE,29,2.0,5.0,38,0.00,,,0.00,0.000000,,2014-11-22 01:31:00,
2014-11-21 18:52:00,35.0,12.0,-100.00,NNE,29,2.0,5.0,38,0.00,,,0.00,0.000000,,2014-11-22 01:52:00,
2014-11-21 19:02:00,35.0,12.0,-100.00,NNE,29,2.0,5.0,38,0.00,,,0.00,0.000000,,2014-11-22 02:02:00,
2014-11-21 19:12:00,35.0,12.0,-100.00,NNE,29,2.0,5.0,38,0.00,,,0.00,0.000000,,2014-11-22 02:12:00,
2014-11-21 19:22:00,35.0,12.0,-100.00,NNE,29,2.0,5.0,38,0.00,,,0.00,0.000000,,2014-11-22 02:22:00,
2014-11-21 19:52:00,29.0,12.0,-100.00,North,359,5.0,7.0,49,0.00,,,0.00,0.000000,,2014-11-22 02:52:00,
2014-11-21 20:02:00,29.0,12.0,-100.00,North,359,5.0,7.0,49,0.00,,,0.00,0.000000,,2014-11-22 03:02:00,
2014-11-21 20:12:00,29.0,12.0,-100.00,North,359,5.0,7.0,49,0.00,,,0.00,0.000000,,2014-11-22 03:12:00,
2014-11-21 20:22:00,29.0,12.0,-100.00,North,359,5.0,7.0,49,0.00,,,0.00,0.000000,,2014-11-22 03:22:00,